sensor_id;sensor_type;location;lat;lon;timestamp;pressure;altitude;pressure_sealevel;temperature;humidity
57904;BME280;43720;47.462;19.030;2023-01-16T05:02:36;99429.19;;;5.35;100.00
57904;BME280;43720;47.462;19.030;2023-01-16T05:05:39;99421.34;;;5.32;100.00
57904;BME280;43720;47.462;19.030;2023-01-16T05:08:41;99415.47;;;5.39;100.00
57904;BME280;43720;47.462;19.030;2023-01-16T05:11:44;99407.84;;;5.47;100.00
57904;BME280;43720;47.462;19.030;2023-01-16T05:14:46;99409.41;;;5.39;100.00
57904;BME280;43720;47.462;19.030;2023-01-16T05:17:48;99403.44;;;5.43;100.00
57904;BME280;43720;47.462;19.030;2023-01-16T05:20:51;99398.34;;;5.48;100.00
57904;BME280;43720;47.462;19.030;2023-01-16T05:23:53;99401.00;;;5.51;100.00
57904;BME280;43720;47.462;19.030;2023-01-16T05:26:55;99409.72;;;5.57;100.00
57904;BME280;43720;47.462;19.030;2023-01-16T05:29:58;99406.75;;;5.37;100.00
57904;BME280;43720;47.462;19.030;2023-01-16T05:33:00;99414.81;;;5.07;100.00
57904;BME280;43720;47.462;19.030;2023-01-16T05:36:04;99410.53;;;5.09;100.00
57904;BME280;43720;47.462;19.030;2023-01-16T05:39:06;99412.25;;;5.09;100.00
57904;BME280;43720;47.462;19.030;2023-01-16T05:42:08;99411.47;;;5.13;100.00
57904;BME280;43720;47.462;19.030;2023-01-16T05:45:23;99412.97;;;5.02;100.00
57904;BME280;43720;47.462;19.030;2023-01-16T05:48:25;99414.69;;;5.03;100.00
57904;BME280;43720;47.462;19.030;2023-01-16T05:51:27;99402.94;;;5.19;100.00
57904;BME280;43720;47.462;19.030;2023-01-16T05:54:30;99403.69;;;5.13;100.00
57904;BME280;43720;47.462;19.030;2023-01-16T05:57:32;99402.84;;;5.14;100.00
57904;BME280;43720;47.462;19.030;2023-01-16T06:00:34;99401.25;;;5.19;100.00
57904;BME280;43720;47.462;19.030;2023-01-16T06:03:37;99408.22;;;5.23;100.00
57904;BME280;43720;47.462;19.030;2023-01-16T06:06:39;99410.69;;;5.17;100.00
57904;BME280;43720;47.462;19.030;2023-01-16T06:09:42;99408.97;;;5.18;100.00
57904;BME280;43720;47.462;19.030;2023-01-16T06:12:44;99400.50;;;5.26;100.00
57904;BME280;43720;47.462;19.030;2023-01-16T06:15:46;99401.31;;;5.24;100.00
57904;BME280;43720;47.462;19.030;2023-01-16T06:18:48;99396.06;;;5.19;100.00
57904;BME280;43720;47.462;19.030;2023-01-16T06:21:51;99409.06;;;5.22;100.00
57904;BME280;43720;47.462;19.030;2023-01-16T06:24:53;99409.97;;;5.24;100.00
57904;BME280;43720;47.462;19.030;2023-01-16T06:27:55;99400.25;;;5.14;100.00
57904;BME280;43720;47.462;19.030;2023-01-16T06:30:58;99396.69;;;5.09;100.00
57904;BME280;43720;47.462;19.030;2023-01-16T06:34:00;99387.28;;;5.12;100.00
57904;BME280;43720;47.462;19.030;2023-01-16T06:37:02;99382.19;;;5.17;100.00
57904;BME280;43720;47.462;19.030;2023-01-16T06:40:05;99384.03;;;5.23;100.00
57904;BME280;43720;47.462;19.030;2023-01-16T06:43:08;99394.59;;;5.33;100.00
57904;BME280;43720;47.462;19.030;2023-01-16T06:46:10;99377.53;;;5.45;100.00
57904;BME280;43720;47.462;19.030;2023-01-16T06:49:13;99371.47;;;5.44;100.00
57904;BME280;43720;47.462;19.030;2023-01-16T06:52:15;99379.53;;;5.59;100.00
57904;BME280;43720;47.462;19.030;2023-01-16T06:55:17;99372.84;;;5.72;100.00
57904;BME280;43720;47.462;19.030;2023-01-16T06:58:20;99364.25;;;5.75;100.00
57904;BME280;43720;47.462;19.030;2023-01-16T07:01:22;99383.41;;;5.81;100.00
57904;BME280;43720;47.462;19.030;2023-01-16T07:04:24;99385.00;;;5.73;100.00
57904;BME280;43720;47.462;19.030;2023-01-16T07:07:27;99379.03;;;5.79;100.00
57904;BME280;43720;47.462;19.030;2023-01-16T07:10:30;99373.09;;;5.86;100.00
57904;BME280;43720;47.462;19.030;2023-01-16T07:13:33;99374.31;;;6.06;100.00
57904;BME280;43720;47.462;19.030;2023-01-16T07:16:36;99383.72;;;6.00;100.00
57904;BME280;43720;47.462;19.030;2023-01-16T07:19:56;99380.81;;;5.83;100.00
57904;BME280;43720;47.462;19.030;2023-01-16T07:23:24;99388.53;;;5.78;100.00
57904;BME280;43720;47.462;19.030;2023-01-16T07:26:27;99381.34;;;5.65;100.00
57904;BME280;43720;47.462;19.030;2023-01-16T07:29:32;99366.59;;;5.61;100.00
57904;BME280;43720;47.462;19.030;2023-01-16T07:32:35;99360.47;;;5.57;100.00
57904;BME280;43720;47.462;19.030;2023-01-16T07:35:38;99361.53;;;5.69;100.00
57904;BME280;43720;47.462;19.030;2023-01-16T07:38:40;99360.63;;;5.65;100.00
57904;BME280;43720;47.462;19.030;2023-01-16T07:41:42;99348.56;;;5.67;100.00
57904;BME280;43720;47.462;19.030;2023-01-16T07:44:58;99345.19;;;5.71;100.00
57904;BME280;43720;47.462;19.030;2023-01-16T07:48:01;99329.63;;;5.71;100.00
57904;BME280;43720;47.462;19.030;2023-01-16T07:51:03;99323.78;;;5.84;100.00
57904;BME280;43720;47.462;19.030;2023-01-16T07:54:08;99326.75;;;6.04;100.00
57904;BME280;43720;47.462;19.030;2023-01-16T07:57:10;99308.88;;;6.26;100.00
57904;BME280;43720;47.462;19.030;2023-01-16T08:00:13;99307.22;;;6.31;100.00
57904;BME280;43720;47.462;19.030;2023-01-16T08:03:15;99296.81;;;6.29;100.00
57904;BME280;43720;47.462;19.030;2023-01-16T08:06:18;99288.22;;;6.32;100.00
57904;BME280;43720;47.462;19.030;2023-01-16T08:09:21;99286.28;;;6.19;100.00
57904;BME280;43720;47.462;19.030;2023-01-16T08:12:23;99276.66;;;6.10;100.00
57904;BME280;43720;47.462;19.030;2023-01-16T08:15:25;99274.97;;;6.12;100.00
57904;BME280;43720;47.462;19.030;2023-01-16T08:18:33;99263.84;;;6.21;100.00
57904;BME280;43720;47.462;19.030;2023-01-16T08:21:36;99249.25;;;6.30;100.00
57904;BME280;43720;47.462;19.030;2023-01-16T08:57:00;99191.50;;;6.48;100.00
57904;BME280;43720;47.462;19.030;2023-01-16T09:00:05;99181.91;;;6.40;100.00
57904;BME280;43720;47.462;19.030;2023-01-16T09:03:08;99174.06;;;6.36;100.00
57904;BME280;43720;47.462;19.030;2023-01-16T09:06:10;99171.34;;;6.26;100.00
57904;BME280;43720;47.462;19.030;2023-01-16T09:09:12;99174.91;;;6.34;100.00
57904;BME280;43720;47.462;19.030;2023-01-16T09:12:15;99170.56;;;6.33;100.00
57904;BME280;43720;47.462;19.030;2023-01-16T09:15:36;99157.50;;;6.25;100.00
57904;BME280;43720;47.462;19.030;2023-01-16T09:18:38;99132.31;;;6.17;100.00
57904;BME280;43720;47.462;19.030;2023-01-16T09:21:40;99134.22;;;6.31;100.00
57904;BME280;43720;47.462;19.030;2023-01-16T09:24:43;99127.34;;;6.36;100.00
57904;BME280;43720;47.462;19.030;2023-01-16T09:27:46;99116.09;;;6.36;100.00
57904;BME280;43720;47.462;19.030;2023-01-16T09:30:50;99113.47;;;6.34;100.00
57904;BME280;43720;47.462;19.030;2023-01-16T09:33:53;99108.41;;;6.44;100.00
57904;BME280;43720;47.462;19.030;2023-01-16T09:36:56;99096.25;;;6.41;100.00
57904;BME280;43720;47.462;19.030;2023-01-16T09:40:00;99091.16;;;6.52;100.00
57904;BME280;43720;47.462;19.030;2023-01-16T09:43:34;99078.94;;;6.42;100.00
57904;BME280;43720;47.462;19.030;2023-01-16T09:48:30;99050.88;;;6.98;100.00
57904;BME280;43720;47.462;19.030;2023-01-16T09:51:43;99050.88;;;6.98;100.00
57904;BME280;43720;47.462;19.030;2023-01-16T09:55:17;99046.88;;;6.35;100.00
57904;BME280;43720;47.462;19.030;2023-01-16T09:58:57;99033.87;;;6.32;100.00
57904;BME280;43720;47.462;19.030;2023-01-16T10:02:26;99027.78;;;6.30;100.00
57904;BME280;43720;47.462;19.030;2023-01-16T10:09:31;99021.62;;;6.19;100.00
57904;BME280;43720;47.462;19.030;2023-01-16T10:12:36;99014.69;;;6.19;100.00
57904;BME280;43720;47.462;19.030;2023-01-16T10:15:59;99003.56;;;6.28;100.00
57904;BME280;43720;47.462;19.030;2023-01-16T10:26:03;98980.19;;;6.28;100.00
57904;BME280;43720;47.462;19.030;2023-01-16T10:29:18;98968.06;;;6.27;100.00
57904;BME280;43720;47.462;19.030;2023-01-16T10:32:30;98956.09;;;6.46;100.00
57904;BME280;43720;47.462;19.030;2023-01-16T10:35:38;98945.03;;;6.68;100.00
57904;BME280;43720;47.462;19.030;2023-01-16T10:38:47;98946.84;;;6.78;100.00
57904;BME280;43720;47.462;19.030;2023-01-16T10:41:57;98946.84;;;6.78;100.00
57904;BME280;43720;47.462;19.030;2023-01-16T10:45:25;98939.88;;;6.73;100.00
57904;BME280;43720;47.462;19.030;2023-01-16T10:48:47;98931.19;;;6.66;100.00
57904;BME280;43720;47.462;19.030;2023-01-16T10:52:08;98922.47;;;6.61;100.00
57904;BME280;43720;47.462;19.030;2023-01-16T10:55:10;98910.47;;;6.74;100.00
57904;BME280;43720;47.462;19.030;2023-01-16T11:01:20;98893.22;;;6.93;100.00
57904;BME280;43720;47.462;19.030;2023-01-16T11:04:33;98887.13;;;6.84;100.00
57904;BME280;43720;47.462;19.030;2023-01-16T11:07:36;98878.44;;;6.79;100.00
57904;BME280;43720;47.462;19.030;2023-01-16T11:10:40;98874.97;;;6.80;100.00
57904;BME280;43720;47.462;19.030;2023-01-16T11:13:43;98865.34;;;6.61;100.00
57904;BME280;43720;47.462;19.030;2023-01-16T11:20:40;98852.47;;;6.78;100.00
57904;BME280;43720;47.462;19.030;2023-01-16T11:23:47;98839.41;;;6.64;100.00
57904;BME280;43720;47.462;19.030;2023-01-16T11:26:54;98838.50;;;6.56;100.00
57904;BME280;43720;47.462;19.030;2023-01-16T11:29:57;98829.03;;;6.67;100.00
57904;BME280;43720;47.462;19.030;2023-01-16T11:32:59;98836.72;;;6.47;100.00
57904;BME280;43720;47.462;19.030;2023-01-16T11:36:09;98831.38;;;6.24;100.00
57904;BME280;43720;47.462;19.030;2023-01-16T11:39:19;98819.25;;;6.22;100.00
57904;BME280;43720;47.462;19.030;2023-01-16T11:42:26;98810.56;;;6.13;100.00
57904;BME280;43720;47.462;19.030;2023-01-16T11:45:48;98806.34;;;6.32;100.00
57904;BME280;43720;47.462;19.030;2023-01-16T11:49:23;98803.75;;;6.34;100.00
57904;BME280;43720;47.462;19.030;2023-01-16T11:52:25;98789.03;;;6.28;100.00
57904;BME280;43720;47.462;19.030;2023-01-16T11:56:11;98779.47;;;6.23;100.00
57904;BME280;43720;47.462;19.030;2023-01-16T12:09:34;98749.16;;;6.14;100.00
57904;BME280;43720;47.462;19.030;2023-01-16T12:12:51;98739.66;;;6.18;100.00
57904;BME280;43720;47.462;19.030;2023-01-16T12:36:30;98683.34;;;5.97;100.00
57904;BME280;43720;47.462;19.030;2023-01-16T12:46:54;98642.75;;;6.06;100.00
57904;BME280;43720;47.462;19.030;2023-01-16T12:56:36;98633.22;;;6.07;100.00
57904;BME280;43720;47.462;19.030;2023-01-16T13:00:00;98636.72;;;6.15;100.00
57904;BME280;43720;47.462;19.030;2023-01-16T13:03:16;98639.34;;;6.17;100.00
57904;BME280;43720;47.462;19.030;2023-01-16T13:06:58;98637.53;;;6.03;100.00
57904;BME280;43720;47.462;19.030;2023-01-16T13:13:36;98615.97;;;6.10;100.00
57904;BME280;43720;47.462;19.030;2023-01-16T13:17:02;98607.28;;;6.04;100.00
57904;BME280;43720;47.462;19.030;2023-01-16T13:20:32;98596.94;;;6.10;100.00
57904;BME280;43720;47.462;19.030;2023-01-16T13:26:57;98595.28;;;6.27;100.00
57904;BME280;43720;47.462;19.030;2023-01-16T13:30:04;98598.72;;;6.31;100.00
57904;BME280;43720;47.462;19.030;2023-01-16T13:33:13;98599.53;;;6.15;100.00
57904;BME280;43720;47.462;19.030;2023-01-16T13:36:25;98597.78;;;6.07;100.00
57904;BME280;43720;47.462;19.030;2023-01-16T13:42:41;98600.34;;;5.94;100.00
57904;BME280;43720;47.462;19.030;2023-01-16T13:45:52;98609.03;;;6.00;100.00
57904;BME280;43720;47.462;19.030;2023-01-16T13:48:59;98601.06;;;5.74;100.00
57904;BME280;43720;47.462;19.030;2023-01-16T13:52:03;98608.84;;;5.70;100.00
57904;BME280;43720;47.462;19.030;2023-01-16T13:55:06;98606.25;;;5.71;100.00
57904;BME280;43720;47.462;19.030;2023-01-16T13:58:25;98600.09;;;5.57;100.00
57904;BME280;43720;47.462;19.030;2023-01-16T14:01:56;98594.09;;;5.62;100.00
57904;BME280;43720;47.462;19.030;2023-01-16T14:12:21;98580.31;;;5.70;100.00
57904;BME280;43720;47.462;19.030;2023-01-16T14:15:25;98571.66;;;5.61;100.00
57904;BME280;43720;47.462;19.030;2023-01-16T14:22:21;98556.97;;;5.68;100.00
57904;BME280;43720;47.462;19.030;2023-01-16T14:25:27;98550.94;;;5.66;100.00
57904;BME280;43720;47.462;19.030;2023-01-16T14:28:32;98551.81;;;5.71;100.00
57904;BME280;43720;47.462;19.030;2023-01-16T14:31:39;98537.13;;;5.76;100.00
57904;BME280;43720;47.462;19.030;2023-01-16T14:35:14;98528.47;;;5.76;100.00
57904;BME280;43720;47.462;19.030;2023-01-16T14:38:23;98524.97;;;5.63;100.00
57904;BME280;43720;47.462;19.030;2023-01-16T14:41:31;98516.31;;;5.55;100.00
57904;BME280;43720;47.462;19.030;2023-01-16T14:45:18;98511.12;;;5.50;100.00
57904;BME280;43720;47.462;19.030;2023-01-16T14:48:42;98514.47;;;5.37;100.00
57904;BME280;43720;47.462;19.030;2023-01-16T14:52:09;98507.66;;;5.57;100.00
57904;BME280;43720;47.462;19.030;2023-01-16T14:55:47;98496.44;;;5.57;100.00
57904;BME280;43720;47.462;19.030;2023-01-16T14:58:55;98492.97;;;5.52;100.00
57904;BME280;43720;47.462;19.030;2023-01-16T15:02:06;98501.50;;;5.32;100.00
57904;BME280;43720;47.462;19.030;2023-01-16T15:05:46;98495.38;;;5.17;100.00
57904;BME280;43720;47.462;19.030;2023-01-16T15:08:53;98486.72;;;5.11;100.00
57904;BME280;43720;47.462;19.030;2023-01-16T15:12:10;98466.16;;;5.42;100.00
57904;BME280;43720;47.462;19.030;2023-01-16T15:15:25;98481.59;;;5.21;100.00
57904;BME280;43720;47.462;19.030;2023-01-16T15:18:29;98469.47;;;5.18;100.00
57904;BME280;43720;47.462;19.030;2023-01-16T15:21:50;98456.59;;;5.27;100.00
57904;BME280;43720;47.462;19.030;2023-01-16T15:25:14;98457.44;;;5.23;100.00
57904;BME280;43720;47.462;19.030;2023-01-16T15:28:33;98448.88;;;5.46;100.00
57904;BME280;43720;47.462;19.030;2023-01-16T15:31:40;98450.56;;;5.33;100.00
57904;BME280;43720;47.462;19.030;2023-01-16T15:34:44;98444.59;;;5.46;100.00
57904;BME280;43720;47.462;19.030;2023-01-16T15:37:54;98451.41;;;5.33;100.00
57904;BME280;43720;47.462;19.030;2023-01-16T15:40:57;98439.25;;;5.17;100.00
57904;BME280;43720;47.462;19.030;2023-01-16T15:44:00;98438.44;;;5.26;100.00
57904;BME280;43720;47.462;19.030;2023-01-16T15:53:49;98429.84;;;5.37;100.00
57904;BME280;43720;47.462;19.030;2023-01-16T15:56:56;98423.87;;;5.57;100.00
57904;BME280;43720;47.462;19.030;2023-01-16T15:59:58;98430.75;;;5.44;100.00
57904;BME280;43720;47.462;19.030;2023-01-16T16:06:16;98428.12;;;5.32;100.00
57904;BME280;43720;47.462;19.030;2023-01-16T16:09:20;98427.22;;;5.25;100.00
57904;BME280;43720;47.462;19.030;2023-01-16T16:12:25;98422.00;;;5.18;100.00
57904;BME280;43720;47.462;19.030;2023-01-16T16:15:28;98415.16;;;5.27;100.00
57904;BME280;43720;47.462;19.030;2023-01-16T16:18:58;98406.53;;;5.37;100.00
57904;BME280;43720;47.462;19.030;2023-01-16T16:22:02;98409.97;;;5.38;100.00
